Time;durP1;ratioP1;P1;durP2;ratioP2;P2;SDS_P1;SDS_P2;PMS_P1;PMS_P2;Temp;Humidity;BMP_temperature;BMP_pressure;BME280_temperature;BME280_humidity;BME280_pressure;Samples;Min_cycle;Max_cycle;Signal;HPM_P1;HPM_P2
2022/04/20 00:00:55;;;;;;;;;;;;;;;;;;5104921;28;1893;-76
2022/04/20 00:03:21;;;;;;;;;;;;;;;;;;5102276;28;1048;-75
2022/04/20 00:05:46;;;;;;;;;;;;;;;;;;5089910;28;1313;-74
2022/04/20 00:08:14;;;;;;;;;;;;;;;;;;5107399;28;1171;-74
2022/04/20 00:10:40;;;;;;;;;;;;;;;;;;5098793;27;1183;-74
2022/04/20 00:13:05;;;;;;;;;;;;;;;;;;5124335;27;888;-75
2022/04/20 00:15:30;;;;;;;;;;;;;;;;;;5124679;27;889;-75
2022/04/20 00:17:56;;;;;;;;;;;;;;;;;;5127855;27;856;-74
2022/04/20 00:20:21;;;;;;;;;;;;;;;;;;5125035;27;1255;-75
2022/04/20 00:22:46;;;;;;;;;;;;;;;;;;5128607;27;1941;-75
2022/04/20 00:25:15;;;;;;;;;;;;;;;;;;5127169;27;1204;-75
2022/04/20 00:27:40;;;;;;;;;;;;;;;;;;5124772;27;1152;-74
2022/04/20 00:30:09;;;;;;;;;;;;;;;;;;5107502;27;1407;-74
2022/04/20 00:32:35;;;;;;;;;;;;;;;;;;5126461;27;1107;-74
2022/04/20 00:35:00;;;;;;;;;;;;;;;;;;5125217;27;1183;-75
2022/04/20 00:37:25;;;;;;;;;;;;;;;;;;5130955;27;1169;-75
2022/04/20 00:39:51;;;;;;;;;;;;;;;;;;5127370;27;1327;-74
2022/04/20 00:42:17;;;;;;;;;;;;;;;;;;5124336;27;1905;-74
2022/04/20 00:44:42;;;;;;;;;;;;;;;;;;5124622;27;1263;-75
2022/04/20 00:47:09;;;;;;;;;;;;;;;;;;5117042;27;1119;-76
2022/04/20 00:49:34;;;;;;;;;;;;;;;;;;5118807;27;1136;-75
2022/04/20 00:52:01;;;;;;;;;;;;;;;;;;5109406;27;1149;-75
2022/04/20 00:54:26;;;;;;;;;;;;;;;;;;5125923;27;1210;-74
2022/04/20 00:56:51;;;;;;;;;;;;;;;;;;5125025;27;1130;-74
2022/04/20 00:59:22;;;;;;;;;;;;;;;;;;5107164;27;1459;-75
2022/04/20 01:01:48;;;;;;;;;;;;;;;;;;5107065;28;1945;-74
2022/04/20 01:04:14;;;;;;;;;;;;;;;;;;5105275;27;1131;-74
2022/04/20 01:06:40;;;;;;;;;;;;;;;;;;5106679;27;1179;-76
2022/04/20 01:09:06;;;;;;;;;;;;;;;;;;5124980;27;1208;-74
2022/04/20 01:11:31;;;;;;;;;;;;;;;;;;5104319;27;1246;-76
2022/04/20 01:13:56;;;;;;;;;;;;;;;;;;5124636;27;1151;-73
2022/04/20 01:16:22;;;;;;;;;;;;;;;;;;5124521;27;1216;-74
2022/04/20 01:18:49;;;;;;;;;;;;;;;;;;5123242;27;1143;-74
2022/04/20 01:21:14;;;;;;;;;;;;;;;;;;5110777;27;1894;-75
2022/04/20 01:23:39;;;;;;;;;;;;;;;;;;5087334;28;1223;-75
2022/04/20 01:26:09;;;;;;;;;;;;;;;;;;5120514;27;1175;-75
2022/04/20 01:28:36;;;;;;;;;;;;;;;;;;5106715;27;1295;-75
2022/04/20 01:31:01;;;;;;;;;;;;;;;;;;5122655;27;1243;-74
2022/04/20 01:33:26;;;;;;;;;;;;;;;;;;5123158;27;1095;-74
2022/04/20 01:35:52;;;;;;;;;;;;;;;;;;5124861;27;1151;-74
2022/04/20 01:38:21;;;;;;;;;;;;;;;;;;5125223;27;1155;-73
2022/04/20 01:40:46;;;;;;;;;;;;;;;;;;5125564;27;1317;-74
2022/04/20 01:43:11;;;;;;;;;;;;;;;;;;5104808;28;1914;-75
2022/04/20 01:45:37;;;;;;;;;;;;;;;;;;5103225;28;1286;-74
2022/04/20 01:48:02;;;;;;;;;;;;;;;;;;5123324;27;1132;-74
2022/04/20 01:50:28;;;;;;;;;;;;;;;;;;5104076;28;1257;-76
2022/04/20 01:52:53;;;;;;;;;;;;;;;;;;5126716;27;1294;-74
2022/04/20 01:55:19;;;;;;;;;;;;;;;;;;5124587;28;1396;-76
2022/04/20 01:57:45;;;;;;;;;;;;;;;;;;5119144;28;1204;-76
2022/04/20 02:00:11;;;;;;;;;;;;;;;;;;5102065;28;1295;-76
2022/04/20 02:02:38;;;;;;;;;;;;;;;;;;5105336;27;1890;-73
2022/04/20 02:05:05;;;;;;;;;;;;;;;;;;5103941;28;1182;-74
2022/04/20 02:07:31;;;;;;;;;;;;;;;;;;5120189;27;1127;-74
2022/04/20 02:09:56;;;;;;;;;;;;;;;;;;5107944;28;1201;-74
2022/04/20 02:12:22;;;;;;;;;;;;;;;;;;5107749;28;1296;-74
2022/04/20 02:14:48;;;;;;;;;;;;;;;;;;5086011;28;1216;-73
2022/04/20 02:17:13;;;;;;;;;;;;;;;;;;5105241;28;1226;-73
2022/04/20 02:19:38;;;;;;;;;;;;;;;;;;5114375;28;1151;-74
2022/04/20 02:22:05;;;;;;;;;;;;;;;;;;5108455;28;1894;-74
2022/04/20 02:24:30;;;;;;;;;;;;;;;;;;5107455;28;1139;-75
2022/04/20 02:26:55;;;;;;;;;;;;;;;;;;5124232;27;1123;-75
2022/04/20 02:29:20;;;;;;;;;;;;;;;;;;5103931;28;1171;-74
2022/04/20 02:31:46;;;;;;;;;;;;;;;;;;5086879;28;1164;-75
2022/04/20 02:34:11;;;;;;;;;;;;;;;;;;5085263;28;1265;-75
2022/04/20 02:36:36;;;;;;;;;;;;;;;;;;5113444;27;1131;-75
2022/04/20 02:39:04;;;;;;;;;;;;;;;;;;5104717;28;1380;-74
2022/04/20 02:41:29;;;;;;;;;;;;;;;;;;5100679;28;1914;-74
2022/04/20 02:43:55;;;;;;;;;;;;;;;;;;5101013;28;1497;-74
2022/04/20 02:46:23;;;;;;;;;;;;;;;;;;5125024;28;1430;-74
2022/04/20 02:48:49;;;;;;;;;;;;;;;;;;5097361;28;1211;-75
2022/04/20 02:51:14;;;;;;;;;;;;;;;;;;5104056;28;1178;-76
2022/04/20 02:53:40;;;;;;;;;;;;;;;;;;5085897;28;1266;-75
2022/04/20 02:56:13;;;;;;;;;;;;;;;;;;5104075;28;1143;-74
2022/04/20 02:58:38;;;;;;;;;;;;;;;;;;5122537;27;1171;-73
2022/04/20 03:01:03;;;;;;;;;;;;;;;;;;5108016;27;1886;-74
2022/04/20 03:03:29;;;;;;;;;;;;;;;;;;5124524;27;1349;-73
2022/04/20 03:05:54;;;;;;;;;;;;;;;;;;5122365;27;1143;-73
2022/04/20 03:08:20;;;;;;;;;;;;;;;;;;5107800;28;874;-74
2022/04/20 03:10:46;;;;;;;;;;;;;;;;;;5108073;28;865;-74
2022/04/20 03:13:11;;;;;;;;;;;;;;;;;;5086805;28;1182;-73
2022/04/20 03:15:36;;;;;;;;;;;;;;;;;;5104518;28;1249;-73
2022/04/20 03:18:02;;;;;;;;;;;;;;;;;;5089592;28;1282;-73
2022/04/20 03:20:36;;;;;;;;;;;;;;;;;;5106754;28;806;-73
2022/04/20 03:23:02;;;;;;;;;;;;;;;;;;5108607;28;1975;-74
2022/04/20 03:25:28;;;;;;;;;;;;;;;;;;5090286;28;1367;-74
2022/04/20 03:27:53;;;;;;;;;;;;;;;;;;5106521;28;1545;-74
2022/04/20 03:30:18;;;;;;;;;;;;;;;;;;5106927;28;798;-74
2022/04/20 03:32:44;;;;;;;;;;;;;;;;;;5108531;28;917;-74
2022/04/20 03:35:09;;;;;;;;;;;;;;;;;;5104423;28;1154;-75
2022/04/20 03:37:35;;;;;;;;;;;;;;;;;;5118032;27;1199;-75
2022/04/20 03:40:00;;;;;;;;;;;;;;;;;;5109194;27;1142;-73
2022/04/20 03:42:26;;;;;;;;;;;;;;;;;;5114916;27;1910;-75
2022/04/20 03:44:52;;;;;;;;;;;;;;;;;;5107422;27;1112;-75
2022/04/20 03:47:17;;;;;;;;;;;;;;;;;;5107645;28;1261;-75
2022/04/20 03:49:42;;;;;;;;;;;;;;;;;;5122017;27;1262;-73
2022/04/20 03:52:07;;;;;;;;;;;;;;;;;;5128256;27;1107;-75
2022/04/20 03:54:34;;;;;;;;;;;;;;;;;;5126274;27;1216;-74
2022/04/20 03:57:07;;;;;;;;;;;;;;;;;;5118255;27;1201;-74
2022/04/20 03:59:36;;;;;;;;;;;;;;;;;;5122380;27;1127;-74
2022/04/20 04:02:03;;;;;;;;;;;;;;;;;;5129323;27;1889;-75
2022/04/20 04:04:28;;;;;;;;;;;;;;;;;;5123934;27;1171;-75
2022/04/20 04:06:53;;;;;;;;;;;;;;;;;;5111276;27;1198;-74
2022/04/20 04:09:19;;;;;;;;;;;;;;;;;;5106374;28;1124;-75
2022/04/20 04:11:44;;;;;;;;;;;;;;;;;;5102737;27;1395;-75
2022/04/20 04:14:09;;;;;;;;;;;;;;;;;;5123092;27;1036;-75
2022/04/20 04:16:36;;;;;;;;;;;;;;;;;;5125988;27;1183;-73
2022/04/20 04:19:03;;;;;;;;;;;;;;;;;;5125066;27;1196;-74
2022/04/20 04:21:28;;;;;;;;;;;;;;;;;;5109838;27;1909;-74
2022/04/20 04:23:53;;;;;;;;;;;;;;;;;;5126678;27;1076;-75
2022/04/20 04:26:18;;;;;;;;;;;;;;;;;;5107256;27;1366;-74
2022/04/20 04:28:54;;;;;;;;;;;;;;;;;;5105121;27;1250;-74
2022/04/20 04:31:19;;;;;;;;;;;;;;;;;;5107170;27;1204;-74
2022/04/20 04:33:45;;;;;;;;;;;;;;;;;;5101495;27;1131;-74
2022/04/20 04:36:10;;;;;;;;;;;;;;;;;;5105357;27;1333;-74
2022/04/20 04:38:36;;;;;;;;;;;;;;;;;;5087032;28;1411;-74
2022/04/20 04:41:01;;;;;;;;;;;;;;;;;;5105381;28;1144;-75
2022/04/20 04:43:27;;;;;;;;;;;;;;;;;;5105222;28;1995;-75
2022/04/20 04:48:36;;;;;;;;;;;;;;;;;;5120816;27;1004;-75
2022/04/20 04:51:06;;;;;;;;;;;;;;;;;;5108792;27;1192;-76
2022/04/20 04:53:31;;;;;;;;;;;;;;;;;;5126202;27;1349;-75
2022/04/20 04:55:57;;;;;;;;;;;;;;;;;;5107690;27;1178;-74
2022/04/20 04:58:22;;;;;;;;;;;;;;;;;;5113343;27;1177;-75
2022/04/20 05:00:48;;;;;;;;;;;;;;;;;;5084741;28;1157;-75
2022/04/20 05:03:22;;;;;;;;;;;;;;;;;;5104623;28;1977;-75
2022/04/20 05:05:48;;;;;;;;;;;;;;;;;;5103907;28;1251;-75
2022/04/20 05:08:13;;;;;;;;;;;;;;;;;;5087376;28;1355;-74
2022/04/20 05:10:38;;;;;;;;;;;;;;;;;;5103385;28;1163;-74
2022/04/20 05:13:04;;;;;;;;;;;;;;;;;;5111942;27;1392;-73
2022/04/20 05:15:30;;;;;;;;;;;;;;;;;;5124900;27;1285;-74
2022/04/20 05:17:55;;;;;;;;;;;;;;;;;;5125297;27;1157;-74
2022/04/20 05:20:21;;;;;;;;;;;;;;;;;;5125318;27;1438;-77
2022/04/20 05:22:46;;;;;;;;;;;;;;;;;;5126974;27;1950;-73
2022/04/20 05:25:11;;;;;;;;;;;;;;;;;;5128086;27;1408;-74
2022/04/20 05:27:37;;;;;;;;;;;;;;;;;;5129064;27;1149;-74
2022/04/20 05:30:02;;;;;;;;;;;;;;;;;;5124823;27;1173;-73
2022/04/20 05:32:34;;;;;;;;;;;;;;;;;;5127737;27;1171;-75
2022/04/20 05:34:59;;;;;;;;;;;;;;;;;;5123400;27;1625;-73
2022/04/20 05:42:53;;;;;;;;;;;;;;;;;;5131939;27;1973;-74
2022/04/20 05:45:18;;;;;;;;;;;;;;;;;;5123764;27;1278;-74
2022/04/20 05:47:44;;;;;;;;;;;;;;;;;;5104009;28;1256;-74
2022/04/20 05:50:09;;;;;;;;;;;;;;;;;;5105463;28;1120;-73
2022/04/20 05:52:34;;;;;;;;;;;;;;;;;;5105515;28;1179;-74
2022/04/20 05:54:59;;;;;;;;;;;;;;;;;;5121445;28;1304;-74
2022/04/20 05:57:25;;;;;;;;;;;;;;;;;;5105081;28;1320;-76
2022/04/20 05:59:50;;;;;;;;;;;;;;;;;;5094113;28;1304;-75
2022/04/20 06:02:16;;;;;;;;;;;;;;;;;;5128555;27;1947;-75
2022/04/20 06:04:43;;;;;;;;;;;;;;;;;;5122858;28;1230;-74
2022/04/20 06:07:08;;;;;;;;;;;;;;;;;;5128561;28;1258;-74
2022/04/20 06:09:34;;;;;;;;;;;;;;;;;;5110676;28;1199;-74
2022/04/20 06:11:59;;;;;;;;;;;;;;;;;;5102953;28;1120;-74
2022/04/20 06:14:24;;;;;;;;;;;;;;;;;;5106251;28;1191;-74
2022/04/20 06:16:53;;;;;;;;;;;;;;;;;;5122281;28;1172;-75
2022/04/20 06:19:18;;;;;;;;;;;;;;;;;;5123533;28;817;-74
2022/04/20 06:21:44;;;;;;;;;;;;;;;;;;5107108;28;1947;-72
2022/04/20 06:24:09;;;;;;;;;;;;;;;;;;5123789;28;1266;-74
2022/04/20 06:26:34;;;;;;;;;;;;;;;;;;5123149;28;885;-74
2022/04/20 06:29:00;;;;;;;;;;;;;;;;;;5121762;27;1155;-74
2022/04/20 06:31:25;;;;;;;;;;;;;;;;;;5107193;28;1188;-74
2022/04/20 06:33:57;;;;;;;;;;;;;;;;;;5105465;27;1205;-74
2022/04/20 06:36:23;;;;;;;;;;;;;;;;;;5129183;27;1225;-74
2022/04/20 06:38:48;;;;;;;;;;;;;;;;;;5125642;27;1286;-73
2022/04/20 06:41:13;;;;;;;;;;;;;;;;;;5128060;27;1929;-74
2022/04/20 06:43:39;;;;;;;;;;;;;;;;;;5109848;27;1171;-74
2022/04/20 06:46:05;;;;;;;;;;;;;;;;;;5103824;27;1259;-73
2022/04/20 06:48:30;;;;;;;;;;;;;;;;;;5108628;28;1176;-74
2022/04/20 06:50:56;;;;;;;;;;;;;;;;;;5119684;27;1076;-74
2022/04/20 06:58:52;;;;;;;;;;;;;;;;;;5129178;27;1023;-75
2022/04/20 07:01:18;;;;;;;;;;;;;;;;;;5115031;27;1893;-74
2022/04/20 07:03:52;;;;;;;;;;;;;;;;;;5111754;27;1182;-74
2022/04/20 07:06:18;;;;;;;;;;;;;;;;;;5126658;27;1306;-74
2022/04/20 07:08:48;;;;;;;;;;;;;;;;;;5107702;27;1222;-74
2022/04/20 07:11:15;;;;;;;;;;;;;;;;;;5094504;27;1336;-75
2022/04/20 07:13:40;;;;;;;;;;;;;;;;;;5127205;27;1467;-75
2022/04/20 07:16:05;;;;;;;;;;;;;;;;;;5124932;27;1310;-74
2022/04/20 07:18:31;;;;;;;;;;;;;;;;;;5108406;27;1312;-75
2022/04/20 07:20:56;;;;;;;;;;;;;;;;;;5108864;27;1405;-74
2022/04/20 07:23:21;;;;;;;;;;;;;;;;;;5127130;27;1886;-73
2022/04/20 07:25:50;;;;;;;;;;;;;;;;;;5127293;27;1223;-74
2022/04/20 07:28:16;;;;;;;;;;;;;;;;;;5123960;27;1191;-73
2022/04/20 07:30:41;;;;;;;;;;;;;;;;;;5127058;27;1153;-74
2022/04/20 07:33:06;;;;;;;;;;;;;;;;;;5124636;27;1155;-74
2022/04/20 07:35:31;;;;;;;;;;;;;;;;;;5124261;27;1230;-74
2022/04/20 07:37:57;;;;;;;;;;;;;;;;;;5126264;27;1131;-76
2022/04/20 07:40:22;;;;;;;;;;;;;;;;;;5096551;28;1288;-75
2022/04/20 07:42:51;;;;;;;;;;;;;;;;;;5103789;28;1937;-74
2022/04/20 07:45:16;;;;;;;;;;;;;;;;;;5102171;28;1329;-75
2022/04/20 07:47:42;;;;;;;;;;;;;;;;;;5103667;28;1302;-75
2022/04/20 07:50:19;;;;;;;;;;;;;;;;;;5102230;28;1046;-74
2022/04/20 07:52:52;;;;;;;;;;;;;;;;;;5105418;28;1194;-75
2022/04/20 07:55:19;;;;;;;;;;;;;;;;;;5105265;28;1242;-75
2022/04/20 07:57:45;;;;;;;;;;;;;;;;;;5102874;28;1341;-74
2022/04/20 08:00:11;;;;;;;;;;;;;;;;;;5102784;28;1226;-74
2022/04/20 08:02:36;;;;;;;;;;;;;;;;;;5105025;28;1933;-75
2022/04/20 08:05:02;;;;;;;;;;;;;;;;;;5101495;28;1026;-74
2022/04/20 08:07:27;;;;;;;;;;;;;;;;;;5105212;28;1116;-75
2022/04/20 08:09:54;;;;;;;;;;;;;;;;;;5103229;28;1206;-76
2022/04/20 08:12:19;;;;;;;;;;;;;;;;;;5106087;27;1432;-74
2022/04/20 08:14:44;;;;;;;;;;;;;;;;;;5107493;27;1307;-74
2022/04/20 08:17:09;;;;;;;;;;;;;;;;;;5131705;27;1135;-75
2022/04/20 08:19:35;;;;;;;;;;;;;;;;;;5129021;27;1284;-76
2022/04/20 08:22:00;;;;;;;;;;;;;;;;;;5123561;27;1889;-76
2022/04/20 08:24:25;;;;;;;;;;;;;;;;;;5115105;27;1195;-76
2022/04/20 08:26:52;;;;;;;;;;;;;;;;;;5107564;27;1179;-77
2022/04/20 08:29:18;;;;;;;;;;;;;;;;;;5087025;28;1276;-77
2022/04/20 08:31:43;;;;;;;;;;;;;;;;;;5106342;28;1124;-76
2022/04/20 08:34:08;;;;;;;;;;;;;;;;;;5102516;28;1186;-77
2022/04/20 08:36:34;;;;;;;;;;;;;;;;;;5088977;28;1199;-78
2022/04/20 08:38:59;;;;;;;;;;;;;;;;;;5115815;27;1298;-78
2022/04/20 08:41:25;;;;;;;;;;;;;;;;;;5086275;28;2213;-79
2022/04/20 08:44:00;;;;;;;;;;;;;;;;;;5090320;27;1254;-78
2022/04/20 08:46:26;;;;;;;;;;;;;;;;;;5121256;27;1119;-78
2022/04/20 08:48:52;;;;;;;;;;;;;;;;;;5112246;27;1160;-78
2022/04/20 08:51:18;;;;;;;;;;;;;;;;;;5090247;28;1250;-77
2022/04/20 08:53:43;;;;;;;;;;;;;;;;;;5105001;28;1288;-77
2022/04/20 08:59:03;;;;;;;;;;;;;;;;;;5123107;27;1007;-78
2022/04/20 09:01:28;;;;;;;;;;;;;;;;;;5128104;27;1947;-77
2022/04/20 09:03:58;;;;;;;;;;;;;;;;;;5106789;27;1208;-76
2022/04/20 09:06:23;;;;;;;;;;;;;;;;;;5116789;27;1375;-77
2022/04/20 09:08:48;;;;;;;;;;;;;;;;;;5094841;27;1218;-78
2022/04/20 09:11:14;;;;;;;;;;;;;;;;;;5124882;27;1186;-77
2022/04/20 09:13:41;;;;;;;;;;;;;;;;;;5124460;27;1234;-75
2022/04/20 09:16:07;;;;;;;;;;;;;;;;;;5102036;27;1180;-76
2022/04/20 09:18:32;;;;;;;;;;;;;;;;;;5094983;28;1203;-77
2022/04/20 09:21:16;;;;;;;;;;;;;;;;;;5109973;27;1263;-76
2022/04/20 09:23:41;;;;;;;;;;;;;;;;;;5117922;27;1191;-77
2022/04/20 09:26:08;;;;;;;;;;;;;;;;;;5111808;27;1018;-78
2022/04/20 09:28:36;;;;;;;;;;;;;;;;;;5102320;28;1243;-78
2022/04/20 09:31:01;;;;;;;;;;;;;;;;;;5113894;27;1281;-76
2022/04/20 09:33:46;;;;;;;;;;;;;;;;;;5102798;27;1431;-77
2022/04/20 09:36:13;;;;;;;;;;;;;;;;;;5109871;28;1473;-78
2022/04/20 09:38:41;;;;;;;;;;;;;;;;;;5113525;27;1249;-77
2022/04/20 09:41:12;;;;;;;;;;;;;;;;;;5095717;28;1335;-77
2022/04/20 09:43:38;;;;;;;;;;;;;;;;;;5107115;28;1967;-78
2022/04/20 09:49:10;;;;;;;;;;;;;;;;;;5103953;28;652;-77
2022/04/20 09:51:40;;;;;;;;;;;;;;;;;;5106249;28;845;-77
2022/04/20 09:54:22;;;;;;;;;;;;;;;;;;5101854;28;1188;-77
2022/04/20 09:56:48;;;;;;;;;;;;;;;;;;5100720;28;1130;-78
2022/04/20 09:59:14;;;;;;;;;;;;;;;;;;5100339;28;829;-76
2022/04/20 10:01:45;;;;;;;;;;;;;;;;;;5091248;28;1905;-76
2022/04/20 10:04:10;;;;;;;;;;;;;;;;;;5120426;28;1181;-76
2022/04/20 10:06:36;;;;;;;;;;;;;;;;;;5124749;28;769;-75
2022/04/20 10:09:03;;;;;;;;;;;;;;;;;;5110893;27;1369;-76
2022/04/20 10:11:29;;;;;;;;;;;;;;;;;;5128773;27;1240;-76
2022/04/20 10:16:45;;;;;;;;;;;;;;;;;;5132246;27;995;-76
2022/04/20 10:19:12;;;;;;;;;;;;;;;;;;5124204;27;1257;-76
2022/04/20 10:21:44;;;;;;;;;;;;;;;;;;5127730;27;1951;-77
2022/04/20 10:24:12;;;;;;;;;;;;;;;;;;5126939;27;1163;-77
2022/04/20 10:26:38;;;;;;;;;;;;;;;;;;5126817;27;1004;-78
2022/04/20 10:29:42;;;;;;;;;;;;;;;;;;5123403;27;1198;-77
2022/04/20 10:32:10;;;;;;;;;;;;;;;;;;5063761;28;1198;-76
2022/04/20 10:34:35;;;;;;;;;;;;;;;;;;5031850;28;1603;-75
2022/04/20 10:37:07;;;;;;;;;;;;;;;;;;5091487;27;1193;-76
2022/04/20 10:39:37;;;;;;;;;;;;;;;;;;5126905;27;1298;-75
2022/04/20 10:42:11;;;;;;;;;;;;;;;;;;5121831;27;1913;-76
2022/04/20 10:44:52;;;;;;;;;;;;;;;;;;5122281;27;1222;-76
2022/04/20 10:47:38;;;;;;;;;;;;;;;;;;5125722;27;1530;-76
2022/04/20 10:50:16;;;;;;;;;;;;;;;;;;5116678;27;1062;-75
2022/04/20 10:52:45;;;;;;;;;;;;;;;;;;5126350;27;1340;-76
2022/04/20 10:55:10;;;;;;;;;;;;;;;;;;5125751;27;1118;-75
2022/04/20 10:57:36;;;;;;;;;;;;;;;;;;5125549;27;1290;-77
2022/04/20 11:00:17;;;;;;;;;;;;;;;;;;5108135;27;1312;-75
2022/04/20 11:02:53;;;;;;;;;;;;;;;;;;5128330;27;1878;-76
2022/04/20 11:05:20;;;;;;;;;;;;;;;;;;5106470;27;1051;-75
2022/04/20 11:08:02;;;;;;;;;;;;;;;;;;5091190;28;1249;-76
2022/04/20 11:10:28;;;;;;;;;;;;;;;;;;5111738;27;1148;-75
2022/04/20 11:19:00;;;;;;;;;;;;;;;;;;5125786;27;1087;-74
2022/04/20 11:21:26;;;;;;;;;;;;;;;;;;5125396;27;2020;-75
2022/04/20 11:23:59;;;;;;;;;;;;;;;;;;5127260;27;1645;-74
2022/04/20 11:26:29;;;;;;;;;;;;;;;;;;5123989;27;1207;-76
2022/04/20 11:28:55;;;;;;;;;;;;;;;;;;5123414;27;1292;-74
2022/04/20 11:31:21;;;;;;;;;;;;;;;;;;5126912;27;1111;-75
2022/04/20 11:33:47;;;;;;;;;;;;;;;;;;5125309;27;1234;-75
2022/04/20 11:36:13;;;;;;;;;;;;;;;;;;5124644;27;1183;-74
2022/04/20 11:38:43;;;;;;;;;;;;;;;;;;5125222;27;1277;-75
2022/04/20 11:41:10;;;;;;;;;;;;;;;;;;5124987;27;1315;-75
2022/04/20 11:43:36;;;;;;;;;;;;;;;;;;5125538;27;1972;-75
2022/04/20 11:46:03;;;;;;;;;;;;;;;;;;5123886;27;1043;-75
2022/04/20 11:48:29;;;;;;;;;;;;;;;;;;5106272;27;1318;-74
2022/04/20 11:51:01;;;;;;;;;;;;;;;;;;5127314;27;1349;-75
2022/04/20 11:53:33;;;;;;;;;;;;;;;;;;5123768;27;1204;-74
2022/04/20 11:55:59;;;;;;;;;;;;;;;;;;5127201;27;1185;-74
2022/04/20 11:58:24;;;;;;;;;;;;;;;;;;5109798;27;1295;-74
2022/04/20 12:01:20;;;;;;;;;;;;;;;;;;5105606;28;837;-74
2022/04/20 12:03:50;;;;;;;;;;;;;;;;;;5083654;28;1898;-75
2022/04/20 12:06:15;;;;;;;;;;;;;;;;;;5104188;28;1267;-73
2022/04/20 12:08:40;;;;;;;;;;;;;;;;;;5105030;28;842;-75
2022/04/20 12:11:11;;;;;;;;;;;;;;;;;;5088341;28;1201;-74
2022/04/20 12:13:39;;;;;;;;;;;;;;;;;;5105764;28;1213;-73
2022/04/20 12:16:08;;;;;;;;;;;;;;;;;;5103799;28;1383;-74
2022/04/20 12:18:39;;;;;;;;;;;;;;;;;;5103297;28;1049;-74
2022/04/20 12:21:07;;;;;;;;;;;;;;;;;;5110010;28;1295;-74
2022/04/20 12:23:37;;;;;;;;;;;;;;;;;;5110925;28;1953;-75
2022/04/20 12:26:03;;;;;;;;;;;;;;;;;;5110695;28;1293;-74
2022/04/20 12:28:41;;;;;;;;;;;;;;;;;;5088645;28;1318;-74
2022/04/20 12:31:09;;;;;;;;;;;;;;;;;;5114350;27;1127;-76
2022/04/20 12:33:37;;;;;;;;;;;;;;;;;;5089518;27;1377;-74
2022/04/20 12:36:06;;;;;;;;;;;;;;;;;;5089201;28;1191;-74
2022/04/20 12:38:41;;;;;;;;;;;;;;;;;;5105360;28;1289;-74
2022/04/20 12:41:17;;;;;;;;;;;;;;;;;;5105969;28;1230;-75
2022/04/20 12:43:42;;;;;;;;;;;;;;;;;;5098185;27;1918;-74
2022/04/20 12:46:13;;;;;;;;;;;;;;;;;;5122421;27;1244;-76
2022/04/20 12:48:42;;;;;;;;;;;;;;;;;;5126141;27;1208;-73
2022/04/20 12:51:28;;;;;;;;;;;;;;;;;;5108593;28;1176;-74
2022/04/20 12:53:55;;;;;;;;;;;;;;;;;;5126162;27;1107;-75
2022/04/20 13:02:02;;;;;;;;;;;;;;;;;;5126679;27;1878;-73
2022/04/20 13:04:28;;;;;;;;;;;;;;;;;;5121709;27;1197;-75
2022/04/20 13:06:54;;;;;;;;;;;;;;;;;;5123626;27;1242;-75
2022/04/20 13:09:19;;;;;;;;;;;;;;;;;;5112798;27;1159;-76
2022/04/20 13:11:45;;;;;;;;;;;;;;;;;;5122125;27;1309;-77
2022/04/20 13:14:13;;;;;;;;;;;;;;;;;;5106074;27;1263;-80
2022/04/20 13:16:39;;;;;;;;;;;;;;;;;;5124659;27;1115;-79
2022/04/20 13:19:05;;;;;;;;;;;;;;;;;;5125633;27;1171;-79
2022/04/20 13:21:30;;;;;;;;;;;;;;;;;;5124869;27;1889;-81
2022/04/20 13:23:55;;;;;;;;;;;;;;;;;;5111222;27;1222;-79
2022/04/20 13:29:05;;;;;;;;;;;;;;;;;;5122931;27;1135;-79
2022/04/20 13:31:31;;;;;;;;;;;;;;;;;;5098926;27;1188;-83
2022/04/20 13:33:56;;;;;;;;;;;;;;;;;;5124243;27;1390;-81
2022/04/20 13:36:22;;;;;;;;;;;;;;;;;;5114350;27;1214;-80
2022/04/20 13:38:47;;;;;;;;;;;;;;;;;;5105494;27;1298;-81
2022/04/20 13:41:15;;;;;;;;;;;;;;;;;;5125016;27;1283;-80
2022/04/20 13:43:40;;;;;;;;;;;;;;;;;;5084434;28;1981;-81
2022/04/20 13:46:06;;;;;;;;;;;;;;;;;;5111792;27;1144;-84
2022/04/20 13:48:31;;;;;;;;;;;;;;;;;;5098711;28;1191;-84
2022/04/20 13:50:56;;;;;;;;;;;;;;;;;;5108007;28;1365;-83
2022/04/20 13:53:22;;;;;;;;;;;;;;;;;;5115506;28;1165;-83
2022/04/20 13:55:47;;;;;;;;;;;;;;;;;;5097598;28;1219;-81
2022/04/20 13:58:16;;;;;;;;;;;;;;;;;;5089751;28;1331;-84
2022/04/20 14:00:42;;;;;;;;;;;;;;;;;;5118969;28;1299;-86
2022/04/20 14:03:10;;;;;;;;;;;;;;;;;;5121874;27;1948;-85
2022/04/20 14:05:35;;;;;;;;;;;;;;;;;;5093136;28;1302;-84
2022/04/20 14:08:01;;;;;;;;;;;;;;;;;;5116008;28;1383;-78
2022/04/20 14:10:26;;;;;;;;;;;;;;;;;;5107194;28;1184;-78
2022/04/20 14:12:51;;;;;;;;;;;;;;;;;;5123003;27;1104;-79
2022/04/20 14:15:22;;;;;;;;;;;;;;;;;;5116224;28;1496;-77
2022/04/20 14:17:47;;;;;;;;;;;;;;;;;;5116840;28;1158;-79
2022/04/20 14:20:13;;;;;;;;;;;;;;;;;;5092377;28;1456;-78
2022/04/20 14:22:39;;;;;;;;;;;;;;;;;;5122396;28;1921;-81
2022/04/20 14:33:26;;;;;;;;;;;;;;;;;;5122628;28;987;-81
2022/04/20 14:35:51;;;;;;;;;;;;;;;;;;5108524;28;1284;-79
2022/04/20 14:38:16;;;;;;;;;;;;;;;;;;5116034;28;1194;-79
2022/04/20 14:40:42;;;;;;;;;;;;;;;;;;5125317;28;1334;-78
2022/04/20 14:43:07;;;;;;;;;;;;;;;;;;5104243;28;2301;-79
2022/04/20 14:45:32;;;;;;;;;;;;;;;;;;5120486;28;1272;-79
2022/04/20 14:48:00;;;;;;;;;;;;;;;;;;5111931;28;1194;-83
2022/04/20 14:50:25;;;;;;;;;;;;;;;;;;5104388;28;1187;-80
2022/04/20 14:52:51;;;;;;;;;;;;;;;;;;5122868;28;1123;-76
2022/04/20 14:55:16;;;;;;;;;;;;;;;;;;5108415;27;1265;-75
2022/04/20 14:57:41;;;;;;;;;;;;;;;;;;5114392;27;1182;-74
2022/04/20 15:00:07;;;;;;;;;;;;;;;;;;5118007;27;1167;-74
2022/04/20 15:02:34;;;;;;;;;;;;;;;;;;5125872;27;1893;-75
2022/04/20 15:05:00;;;;;;;;;;;;;;;;;;5109891;27;1726;-75
2022/04/20 15:07:29;;;;;;;;;;;;;;;;;;5126157;27;1143;-75
2022/04/20 15:09:55;;;;;;;;;;;;;;;;;;5126020;27;1260;-74
2022/04/20 15:12:21;;;;;;;;;;;;;;;;;;5124765;27;1209;-76
2022/04/20 15:14:47;;;;;;;;;;;;;;;;;;5123928;27;1209;-75
2022/04/20 15:17:13;;;;;;;;;;;;;;;;;;5126851;27;1173;-74
2022/04/20 15:19:38;;;;;;;;;;;;;;;;;;5104942;27;1165;-76
2022/04/20 15:22:05;;;;;;;;;;;;;;;;;;5128003;27;1959;-76
2022/04/20 15:24:30;;;;;;;;;;;;;;;;;;5126926;27;1159;-75
2022/04/20 15:26:55;;;;;;;;;;;;;;;;;;5125447;27;1167;-74
2022/04/20 15:29:20;;;;;;;;;;;;;;;;;;5125204;27;1186;-75
2022/04/20 15:31:46;;;;;;;;;;;;;;;;;;5125675;27;1129;-76
2022/04/20 15:34:11;;;;;;;;;;;;;;;;;;5107673;27;1264;-75
2022/04/20 15:36:37;;;;;;;;;;;;;;;;;;5125911;27;1383;-76
2022/04/20 15:39:06;;;;;;;;;;;;;;;;;;5104653;28;1174;-75
2022/04/20 15:41:33;;;;;;;;;;;;;;;;;;5106138;28;1933;-76
2022/04/20 15:43:59;;;;;;;;;;;;;;;;;;5120804;27;1533;-76
2022/04/20 15:46:25;;;;;;;;;;;;;;;;;;5128661;27;1468;-76
2022/04/20 15:48:51;;;;;;;;;;;;;;;;;;5107107;27;1256;-76
2022/04/20 15:51:17;;;;;;;;;;;;;;;;;;5128965;27;1278;-76
2022/04/20 15:53:42;;;;;;;;;;;;;;;;;;5126224;27;1145;-76
2022/04/20 16:01:36;;;;;;;;;;;;;;;;;;5117517;27;1957;-75
2022/04/20 16:04:01;;;;;;;;;;;;;;;;;;5104145;28;1203;-76
2022/04/20 16:06:31;;;;;;;;;;;;;;;;;;5106984;28;1447;-76
2022/04/20 16:08:56;;;;;;;;;;;;;;;;;;5102386;28;1338;-76
2022/04/20 16:11:21;;;;;;;;;;;;;;;;;;5109383;28;890;-77
2022/04/20 16:13:48;;;;;;;;;;;;;;;;;;5104048;28;802;-75
2022/04/20 16:16:14;;;;;;;;;;;;;;;;;;5107095;28;1377;-75
2022/04/20 16:18:39;;;;;;;;;;;;;;;;;;5104042;28;802;-76
2022/04/20 16:21:05;;;;;;;;;;;;;;;;;;5109395;28;806;-77
2022/04/20 16:23:30;;;;;;;;;;;;;;;;;;5109552;28;1906;-77
2022/04/20 16:25:56;;;;;;;;;;;;;;;;;;5109430;28;1288;-77
2022/04/20 16:28:21;;;;;;;;;;;;;;;;;;5105343;28;1210;-78
2022/04/20 16:30:46;;;;;;;;;;;;;;;;;;5104722;28;1196;-78
2022/04/20 16:33:13;;;;;;;;;;;;;;;;;;5108168;28;864;-77
2022/04/20 16:35:39;;;;;;;;;;;;;;;;;;5087151;28;1252;-77
2022/04/20 16:38:05;;;;;;;;;;;;;;;;;;5091055;28;1080;-77
2022/04/20 16:40:39;;;;;;;;;;;;;;;;;;5126530;27;1170;-77
2022/04/20 16:43:04;;;;;;;;;;;;;;;;;;5123689;27;2000;-78
2022/04/20 16:45:33;;;;;;;;;;;;;;;;;;5122857;27;1173;-78
2022/04/20 16:47:59;;;;;;;;;;;;;;;;;;5105215;28;1204;-77
2022/04/20 16:50:25;;;;;;;;;;;;;;;;;;5091086;28;1206;-77
2022/04/20 16:52:51;;;;;;;;;;;;;;;;;;5088165;28;1177;-80
2022/04/20 16:55:16;;;;;;;;;;;;;;;;;;5106724;27;1322;-80
2022/04/20 16:57:41;;;;;;;;;;;;;;;;;;5105757;28;1134;-79
2022/04/20 17:00:08;;;;;;;;;;;;;;;;;;5098717;27;1323;-76
2022/04/20 17:02:34;;;;;;;;;;;;;;;;;;5124879;27;1937;-75
2022/04/20 17:04:59;;;;;;;;;;;;;;;;;;5105495;27;1320;-74
2022/04/20 17:07:24;;;;;;;;;;;;;;;;;;5125666;27;1260;-75
2022/04/20 17:09:50;;;;;;;;;;;;;;;;;;5123006;27;1215;-75
2022/04/20 17:12:15;;;;;;;;;;;;;;;;;;5105595;27;1351;-77
2022/04/20 17:14:41;;;;;;;;;;;;;;;;;;5120185;27;1260;-77
2022/04/20 17:17:06;;;;;;;;;;;;;;;;;;5123095;27;1159;-77
2022/04/20 17:19:34;;;;;;;;;;;;;;;;;;5121601;27;1171;-75
2022/04/20 17:27:38;;;;;;;;;;;;;;;;;;5121788;27;1016;-77
2022/04/20 17:30:03;;;;;;;;;;;;;;;;;;5120780;27;1271;-77
2022/04/20 17:32:29;;;;;;;;;;;;;;;;;;5098541;28;1476;-77
2022/04/20 17:37:38;;;;;;;;;;;;;;;;;;5120616;27;1213;-76
2022/04/20 17:40:04;;;;;;;;;;;;;;;;;;5125087;27;1419;-80
2022/04/20 17:42:29;;;;;;;;;;;;;;;;;;5110458;27;1918;-80
2022/04/20 17:44:54;;;;;;;;;;;;;;;;;;5119073;27;1171;-80
2022/04/20 17:47:23;;;;;;;;;;;;;;;;;;5088791;28;1235;-80
2022/04/20 17:49:49;;;;;;;;;;;;;;;;;;5100084;28;1497;-79
2022/04/20 17:52:14;;;;;;;;;;;;;;;;;;5126715;28;1195;-81
2022/04/20 17:54:40;;;;;;;;;;;;;;;;;;5124466;28;1242;-77
2022/04/20 17:57:05;;;;;;;;;;;;;;;;;;5117012;28;1179;-78
2022/04/20 17:59:30;;;;;;;;;;;;;;;;;;5103265;28;1156;-75